createdAt,value
2022-08-22T00:01:11.206Z,17.50
2022-08-22T00:03:56.322Z,17.60
2022-08-22T00:09:23.826Z,17.60
2022-08-22T00:12:28.739Z,17.60
2022-08-22T00:15:42.434Z,17.70
2022-08-22T00:18:13.383Z,17.60
2022-08-22T00:20:48.484Z,17.70
2022-08-22T00:23:22.601Z,17.70
2022-08-22T00:26:27.301Z,17.70
2022-08-22T00:29:01.897Z,17.70
2022-08-22T00:32:06.549Z,17.60
2022-08-22T00:34:39.952Z,17.40
2022-08-22T00:37:16.239Z,17.40
2022-08-22T00:39:52.723Z,17.30
2022-08-22T00:42:43.862Z,17.30
2022-08-22T00:45:13.397Z,17.30
2022-08-22T00:48:12.324Z,17.40
2022-08-22T00:51:10.233Z,17.50
2022-08-22T00:53:45.821Z,17.60
2022-08-22T00:56:24.824Z,17.70
2022-08-22T00:58:54.799Z,17.80
2022-08-22T01:01:37.953Z,17.80
2022-08-22T01:04:23.494Z,17.80
2022-08-22T01:07:05.552Z,17.80
2022-08-22T01:10:04.092Z,17.70
2022-08-22T01:12:42.652Z,17.70
2022-08-22T01:15:14.348Z,17.70
2022-08-22T01:18:00.126Z,17.60
2022-08-22T01:21:04.433Z,17.70
2022-08-22T01:24:04.344Z,17.60
2022-08-22T01:26:49.741Z,17.60
2022-08-22T01:29:38.347Z,17.70
2022-08-22T01:32:39.878Z,17.70
2022-08-22T01:44:58.966Z,18.00
2022-08-22T01:50:30.724Z,18.10
2022-08-22T01:53:08.625Z,18.10
2022-08-22T01:55:44.802Z,18.10
2022-08-22T01:58:28.264Z,18.20
2022-08-22T02:01:11.501Z,18.20
2022-08-22T02:04:05.669Z,18.20
2022-08-22T02:06:58.526Z,18.20
2022-08-22T02:09:47.273Z,18.20
2022-08-22T02:12:37.620Z,18.10
2022-08-22T02:15:40.965Z,18.10
2022-08-22T02:18:07.701Z,18.10
2022-08-22T02:20:46.234Z,18.10
2022-08-22T02:23:34.227Z,18.10
2022-08-22T02:26:09.564Z,18.00
2022-08-22T02:29:20.643Z,18.00
2022-08-22T02:31:53.914Z,18.00
2022-08-22T02:34:44.205Z,18.00
2022-08-22T02:37:19.946Z,18.00
2022-08-22T02:40:02.164Z,18.00
2022-08-22T02:42:43.155Z,18.00
2022-08-22T02:48:38.152Z,17.90
2022-08-22T02:51:25.979Z,17.80
2022-08-22T02:54:05.046Z,17.80
2022-08-22T02:56:39.054Z,17.70
2022-08-22T02:59:39.956Z,17.70
2022-08-22T03:02:27.617Z,17.70
2022-08-22T03:08:29.100Z,17.50
2022-08-22T03:11:27.777Z,17.40
2022-08-22T03:14:03.262Z,17.30
2022-08-22T03:16:36.271Z,17.40
2022-08-22T03:19:18.674Z,17.30
2022-08-22T03:21:56.149Z,17.40
2022-08-22T03:30:39.835Z,17.30
2022-08-22T03:33:26.977Z,17.30
2022-08-22T03:36:17.793Z,17.30
2022-08-22T03:38:51.945Z,17.30
2022-08-22T03:41:24.514Z,17.40
2022-08-22T03:43:51.245Z,17.40
2022-08-22T03:46:50.617Z,17.50
2022-08-22T03:52:27.710Z,17.40
2022-08-22T03:55:30.591Z,17.30
2022-08-22T03:58:03.353Z,17.30
2022-08-22T04:04:33.070Z,17.20
2022-08-22T04:07:32.217Z,17.20
2022-08-22T04:10:12.957Z,17.20
2022-08-22T04:13:03.444Z,17.10
2022-08-22T04:15:48.904Z,17.10
2022-08-22T04:21:10.916Z,17.20
2022-08-22T04:24:06.823Z,17.20
2022-08-22T04:26:40.512Z,17.20
2022-08-22T04:29:17.766Z,17.20
2022-08-22T04:31:53.910Z,17.10
2022-08-22T04:43:58.551Z,17.20
2022-08-22T04:46:37.620Z,17.30
2022-08-22T04:49:43.203Z,17.30
2022-08-22T04:52:12.781Z,17.30
2022-08-22T04:55:15.103Z,17.40
2022-08-22T05:04:05.973Z,17.70
2022-08-22T05:06:37.105Z,17.80
2022-08-22T05:09:14.147Z,17.80
2022-08-22T05:11:43.723Z,17.80
2022-08-22T05:14:19.424Z,17.90
2022-08-22T05:16:51.876Z,18.00
2022-08-22T05:19:31.190Z,18.00
2022-08-22T05:21:59.662Z,18.10
2022-08-22T05:24:36.194Z,18.20
2022-08-22T05:27:26.886Z,18.20
2022-08-22T05:30:01.870Z,18.30
2022-08-22T05:32:49.332Z,18.30
2022-08-22T05:38:12.078Z,18.30
2022-08-22T05:40:39.232Z,18.40
2022-08-22T05:43:09.878Z,18.40
2022-08-22T05:51:56.619Z,18.40
2022-08-22T05:54:33.595Z,18.50
2022-08-22T05:57:27.099Z,18.50
2022-08-22T06:00:17.435Z,18.60
2022-08-22T06:03:05.156Z,18.60
2022-08-22T06:05:36.143Z,18.70
2022-08-22T06:14:53.125Z,18.90
2022-08-22T06:23:39.903Z,18.90
2022-08-22T06:26:20.520Z,19.00
2022-08-22T06:28:55.026Z,19.00
2022-08-22T06:31:46.813Z,19.00
2022-08-22T06:34:33.011Z,19.00
2022-08-22T06:37:04.462Z,19.10
2022-08-22T06:39:33.030Z,19.20
2022-08-22T06:42:04.977Z,19.20
2022-08-22T06:44:44.975Z,19.30
2022-08-22T06:47:21.880Z,19.40
2022-08-22T06:49:51.956Z,19.50
2022-08-22T06:52:21.923Z,19.60
2022-08-22T06:57:45.318Z,19.70
2022-08-22T07:00:15.554Z,19.80
2022-08-22T07:03:15.745Z,19.80
2022-08-22T07:05:43.206Z,19.90
2022-08-22T07:14:07.398Z,20.20
2022-08-22T07:16:43.331Z,20.30
2022-08-22T07:22:28.460Z,20.50
2022-08-22T07:25:06.537Z,20.70
2022-08-22T07:28:17.625Z,20.80
2022-08-22T07:33:51.264Z,20.90
2022-08-22T07:36:23.021Z,20.90
2022-08-22T07:39:21.506Z,21.00
2022-08-22T07:42:07.157Z,21.10
2022-08-22T07:44:57.008Z,21.10
2022-08-22T07:50:24.267Z,21.40
2022-08-22T07:52:53.086Z,21.50
2022-08-22T07:55:26.082Z,21.60
2022-08-22T07:57:58.964Z,21.80
2022-08-22T08:00:26.838Z,21.90
2022-08-22T08:05:26.045Z,22.20
2022-08-22T08:07:55.031Z,22.20
2022-08-22T08:10:32.975Z,22.40
2022-08-22T08:13:06.617Z,22.50
2022-08-22T08:15:35.792Z,22.60
2022-08-22T08:18:12.184Z,22.90
2022-08-22T08:23:30.325Z,23.50
2022-08-22T08:26:10.315Z,23.90
2022-08-22T08:28:48.513Z,23.80
2022-08-22T08:31:19.683Z,23.90
2022-08-22T08:33:49.830Z,23.90
2022-08-22T08:36:25.943Z,24.20
2022-08-22T08:39:05.586Z,24.60
2022-08-22T08:41:50.813Z,24.50
2022-08-22T08:44:55.138Z,24.50
2022-08-22T08:50:53.879Z,24.60
2022-08-22T08:53:23.495Z,25.10
2022-08-22T08:59:24.834Z,25.80
2022-08-22T09:01:57.239Z,27.20
2022-08-22T09:04:27.599Z,26.30
2022-08-22T09:10:49.922Z,25.50
2022-08-22T09:13:45.098Z,25.30
2022-08-22T09:19:33.054Z,25.40
2022-08-22T09:22:24.957Z,25.70
2022-08-22T09:24:54.811Z,26.30
2022-08-22T09:27:31.358Z,26.10
2022-08-22T09:30:12.114Z,27.40
2022-08-22T09:32:47.842Z,27.70
2022-08-22T09:35:23.441Z,28.00
2022-08-22T09:40:16.370Z,25.20
2022-08-22T09:40:16.466Z,25.90
2022-08-22T09:44:32.830Z,29.20
2022-08-22T09:47:14.887Z,29.60
2022-08-22T09:50:03.286Z,30.10
2022-08-22T09:55:50.123Z,30.60
2022-08-22T09:58:59.214Z,30.70
2022-08-22T10:05:40.324Z,29.40
2022-08-22T10:08:38.480Z,28.60
2022-08-22T10:14:23.064Z,29.20
2022-08-22T10:17:16.860Z,28.70
2022-08-22T10:19:58.651Z,28.10
2022-08-22T10:22:44.546Z,27.50
2022-08-22T10:25:34.111Z,27.20
2022-08-22T10:28:28.450Z,27.40
2022-08-22T10:31:19.510Z,28.30
2022-08-22T10:37:32.370Z,29.40
2022-08-22T10:40:15.933Z,29.00
2022-08-22T10:43:28.791Z,28.70
2022-08-22T10:46:12.401Z,28.50
2022-08-22T10:48:54.566Z,29.20
2022-08-22T10:54:50.678Z,29.60
2022-08-22T10:57:30.515Z,29.00
2022-08-22T11:02:59.666Z,28.80
2022-08-22T11:05:32.470Z,29.40
2022-08-22T11:11:19.418Z,30.00
2022-08-22T11:14:13.661Z,29.80
2022-08-22T11:17:12.083Z,29.30
2022-08-22T11:20:10.078Z,29.80
2022-08-22T11:23:14.827Z,29.80
2022-08-22T11:25:53.994Z,29.40
2022-08-22T11:28:36.956Z,29.50
2022-08-22T11:31:08.989Z,29.70
2022-08-22T11:34:02.280Z,30.10
2022-08-22T11:36:39.639Z,30.50
2022-08-22T11:39:32.242Z,30.80
2022-08-22T11:42:14.780Z,31.20
2022-08-22T11:44:56.015Z,31.40
2022-08-22T11:47:36.581Z,31.80
2022-08-22T11:50:39.407Z,31.40
2022-08-22T11:53:22.651Z,31.20
2022-08-22T11:56:45.578Z,29.40
2022-08-22T12:02:04.908Z,28.70
2022-08-22T12:04:46.752Z,28.50
2022-08-22T12:07:25.800Z,28.50
2022-08-22T12:10:00.128Z,28.20
2022-08-22T12:13:01.857Z,27.80
2022-08-22T12:15:33.563Z,27.50
2022-08-22T12:18:30.852Z,27.30
2022-08-22T12:27:28.808Z,27.60
2022-08-22T12:30:20.493Z,28.00
2022-08-22T12:33:15.521Z,27.40
2022-08-22T12:36:18.280Z,27.70
2022-08-22T12:39:12.850Z,28.10
2022-08-22T12:42:17.420Z,28.90
2022-08-22T12:44:57.086Z,28.50
2022-08-22T12:47:34.431Z,29.50
2022-08-22T12:50:28.262Z,29.30
2022-08-22T12:52:58.306Z,28.70
2022-08-22T12:55:38.790Z,28.60
2022-08-22T12:58:33.552Z,28.70
2022-08-22T13:01:06.268Z,28.50
2022-08-22T13:03:44.978Z,28.20
2022-08-22T13:06:33.505Z,27.80
2022-08-22T13:11:52.196Z,27.50
2022-08-22T13:14:25.890Z,27.10
2022-08-22T13:16:59.750Z,27.00
2022-08-22T13:22:27.468Z,26.80
2022-08-22T13:25:08.493Z,26.80
2022-08-22T13:28:03.387Z,26.60
2022-08-22T13:36:24.120Z,26.20
2022-08-22T13:39:03.981Z,26.00
2022-08-22T13:41:44.247Z,25.90
2022-08-22T13:44:18.959Z,25.90
2022-08-22T13:47:13.240Z,25.80
2022-08-22T13:49:42.793Z,25.70
2022-08-22T13:52:36.950Z,25.60
2022-08-22T13:55:30.207Z,25.60
2022-08-22T13:58:07.685Z,25.40
2022-08-22T14:04:28.342Z,25.30
2022-08-22T14:07:02.357Z,25.30
2022-08-22T14:09:54.233Z,25.20
2022-08-22T14:15:32.367Z,25.20
2022-08-22T14:18:20.464Z,25.20
2022-08-22T14:21:16.507Z,25.20
2022-08-22T14:23:44.881Z,25.40
2022-08-22T14:26:47.711Z,25.50
2022-08-22T14:35:21.654Z,25.90
2022-08-22T14:37:57.514Z,26.20
2022-08-22T14:40:36.328Z,26.50
2022-08-22T14:43:15.342Z,26.80
2022-08-22T14:46:01.997Z,27.10
2022-08-22T14:48:40.685Z,27.20
2022-08-22T14:51:18.530Z,27.60
2022-08-22T14:53:48.502Z,28.20
2022-08-22T14:59:12.052Z,28.90
2022-08-22T15:02:16.557Z,29.30
2022-08-22T15:04:49.857Z,29.50
2022-08-22T15:10:34.223Z,29.50
2022-08-22T15:13:05.578Z,29.10
2022-08-22T15:15:53.519Z,28.90
2022-08-22T15:18:28.597Z,28.70
2022-08-22T15:24:03.304Z,28.80
2022-08-22T15:26:38.272Z,28.40
2022-08-22T15:29:18.266Z,28.20
2022-08-22T15:31:51.517Z,28.60
2022-08-22T15:37:22.057Z,29.00
2022-08-22T15:40:27.215Z,28.70
2022-08-22T15:42:55.951Z,28.10
2022-08-22T15:45:36.189Z,27.90
2022-08-22T15:48:10.477Z,27.80
2022-08-22T15:50:55.602Z,27.40
2022-08-22T15:53:27.730Z,27.10
2022-08-22T15:56:05.053Z,27.00
2022-08-22T15:58:34.189Z,27.40
2022-08-22T16:01:19.677Z,27.80
2022-08-22T16:04:11.801Z,27.70
2022-08-22T16:06:55.084Z,27.80
2022-08-22T16:15:49.424Z,27.20
2022-08-22T16:18:34.552Z,27.70
2022-08-22T16:21:03.605Z,28.20
2022-08-22T16:23:50.339Z,27.80
2022-08-22T16:29:12.371Z,27.50
2022-08-22T16:31:44.784Z,27.10
2022-08-22T16:34:17.933Z,27.00
2022-08-22T16:37:02.883Z,26.70
2022-08-22T16:39:49.581Z,26.20
2022-08-22T16:42:16.368Z,26.00
2022-08-22T16:44:43.092Z,26.10
2022-08-22T16:47:20.272Z,25.90
2022-08-22T16:49:55.488Z,25.90
2022-08-22T16:52:25.295Z,25.70
2022-08-22T16:54:56.752Z,25.50
2022-08-22T16:57:54.444Z,25.10
2022-08-22T17:00:48.732Z,25.10
2022-08-22T17:03:43.226Z,25.10
2022-08-22T17:06:18.961Z,24.90
2022-08-22T17:09:10.587Z,24.80
2022-08-22T17:11:46.254Z,24.70
2022-08-22T17:14:18.885Z,24.50
2022-08-22T17:20:23.268Z,24.30
2022-08-22T17:22:55.231Z,24.10
2022-08-22T17:25:30.801Z,24.00
2022-08-22T17:28:15.517Z,24.00
2022-08-22T17:30:58.743Z,23.80
2022-08-22T17:33:40.551Z,23.70
2022-08-22T17:36:28.709Z,23.40
2022-08-22T17:42:41.392Z,23.20
2022-08-22T17:45:10.983Z,23.10
2022-08-22T17:48:15.272Z,23.00
2022-08-22T17:57:39.607Z,22.70
2022-08-22T18:03:19.046Z,22.50
2022-08-22T18:05:53.293Z,22.40
2022-08-22T18:08:38.695Z,22.30
2022-08-22T18:11:54.510Z,22.20
2022-08-22T18:14:24.182Z,22.10
2022-08-22T18:16:54.523Z,22.00
2022-08-22T18:19:24.175Z,21.90
2022-08-22T18:22:03.048Z,21.80
2022-08-22T18:24:37.728Z,21.80
2022-08-22T18:27:35.062Z,21.70
2022-08-22T18:30:11.104Z,21.70
2022-08-22T18:32:58.394Z,21.50
2022-08-22T18:35:53.725Z,21.40
2022-08-22T18:38:55.093Z,21.40
2022-08-22T18:41:36.926Z,21.40
2022-08-22T18:44:12.817Z,21.20
2022-08-22T18:46:51.581Z,21.20
2022-08-22T18:49:18.776Z,21.20
2022-08-22T18:52:05.502Z,21.10
2022-08-22T18:54:37.378Z,21.10
2022-08-22T19:03:50.404Z,20.80
2022-08-22T19:06:44.516Z,20.80
2022-08-22T19:09:48.766Z,20.80
2022-08-22T19:12:49.843Z,20.70
2022-08-22T19:18:30.614Z,20.70
2022-08-22T19:21:13.632Z,20.60
2022-08-22T19:23:42.107Z,20.50
2022-08-22T19:26:31.601Z,20.50
2022-08-22T19:29:26.555Z,20.50
2022-08-22T19:31:56.872Z,20.40
2022-08-22T19:34:26.753Z,20.40
2022-08-22T19:40:08.129Z,20.30
2022-08-22T19:42:38.788Z,20.30
2022-08-22T19:45:14.547Z,20.20
2022-08-22T19:47:43.302Z,20.20
2022-08-22T19:50:26.962Z,20.20
2022-08-22T19:53:08.872Z,20.10
2022-08-22T19:55:38.390Z,20.10
2022-08-22T19:58:07.944Z,20.00
2022-08-22T20:03:54.945Z,20.00
2022-08-22T20:06:44.487Z,20.00
2022-08-22T20:09:23.381Z,19.90
2022-08-22T20:12:03.059Z,19.90
2022-08-22T20:14:35.185Z,19.80
2022-08-22T20:20:30.462Z,19.80
2022-08-22T20:23:16.844Z,19.80
2022-08-22T20:25:47.680Z,19.70
2022-08-22T20:28:47.316Z,19.70
2022-08-22T20:31:26.625Z,19.70
2022-08-22T20:34:01.905Z,19.70
2022-08-22T20:36:29.576Z,19.60
2022-08-22T20:39:19.555Z,19.60
2022-08-22T20:41:53.591Z,19.60
2022-08-22T20:47:19.428Z,19.70
2022-08-22T20:49:55.183Z,19.70
2022-08-22T20:52:29.603Z,19.50
2022-08-22T20:54:59.230Z,19.50
2022-08-22T20:57:26.110Z,19.50
2022-08-22T21:03:04.090Z,19.50
2022-08-22T21:05:49.459Z,19.50
2022-08-22T21:11:04.122Z,19.30
2022-08-22T21:16:32.095Z,19.30
2022-08-22T21:19:00.659Z,19.30
2022-08-22T21:21:33.350Z,19.30
2022-08-22T21:24:06.139Z,19.30
2022-08-22T21:26:36.688Z,19.20
2022-08-22T21:32:40.035Z,19.20
2022-08-22T21:38:05.810Z,19.10
2022-08-22T21:40:38.834Z,19.10
2022-08-22T21:43:07.208Z,19.10
2022-08-22T21:45:39.885Z,19.00
2022-08-22T21:48:57.366Z,18.90
2022-08-22T21:54:31.675Z,18.90
2022-08-22T21:57:34.611Z,18.90
2022-08-22T22:02:48.685Z,18.80
2022-08-22T22:05:17.557Z,18.80
2022-08-22T22:07:46.388Z,18.70
2022-08-22T22:10:15.834Z,18.60
2022-08-22T22:12:45.074Z,18.60
2022-08-22T22:15:16.467Z,18.60
2022-08-22T22:17:43.323Z,18.70
2022-08-22T22:20:11.270Z,18.60
2022-08-22T22:22:43.175Z,18.50
2022-08-22T22:25:41.290Z,18.50
2022-08-22T22:28:20.597Z,18.40
2022-08-22T22:30:50.064Z,18.50
2022-08-22T22:33:18.684Z,18.40
2022-08-22T22:35:45.539Z,18.50
2022-08-22T22:40:59.763Z,18.30
2022-08-22T22:46:14.539Z,18.30
2022-08-22T22:48:41.350Z,18.30
2022-08-22T22:51:10.378Z,18.20
2022-08-22T22:53:40.472Z,18.20
2022-08-22T22:56:16.125Z,18.20
2022-08-22T22:58:43.053Z,18.20
2022-08-22T23:01:12.727Z,18.10
2022-08-22T23:03:39.735Z,18.10
2022-08-22T23:06:15.386Z,18.10
2022-08-22T23:08:42.569Z,18.10
2022-08-22T23:14:03.217Z,18.00
2022-08-22T23:16:35.041Z,18.00
2022-08-22T23:19:11.639Z,17.90
2022-08-22T23:24:27.522Z,17.90
2022-08-22T23:26:54.375Z,17.90
2022-08-22T23:29:21.169Z,17.90
2022-08-22T23:31:59.437Z,18.00
2022-08-22T23:34:30.171Z,18.00
2022-08-22T23:36:59.783Z,17.90
2022-08-22T23:39:28.186Z,17.80
2022-08-22T23:41:55.592Z,17.80
2022-08-22T23:44:25.505Z,17.80
2022-08-22T23:46:52.679Z,17.70
2022-08-22T23:49:19.883Z,17.70
2022-08-22T23:51:48.117Z,17.70
2022-08-22T23:54:15.873Z,17.70
2022-08-22T23:59:42.336Z,17.70
